createdAt,value
2018-03-24T00:00:28.044Z,99.99
2018-03-24T00:01:28.021Z,99.99
2018-03-24T00:02:28.016Z,99.99
2018-03-24T00:03:27.864Z,99.99
2018-03-24T00:04:28.059Z,99.99
2018-03-24T00:05:27.752Z,99.99
2018-03-24T00:06:27.761Z,99.99
2018-03-24T00:07:27.979Z,99.99
2018-03-24T00:08:27.727Z,99.99
2018-03-24T00:09:27.966Z,99.99
2018-03-24T00:10:27.968Z,99.99
2018-03-24T00:11:28.001Z,99.99
2018-03-24T00:12:27.948Z,99.99
2018-03-24T00:13:27.941Z,99.99
2018-03-24T00:14:27.932Z,99.99
2018-03-24T00:15:27.944Z,99.99
2018-03-24T00:16:27.654Z,99.99
2018-03-24T00:17:27.980Z,99.99
2018-03-24T00:18:27.895Z,99.99
2018-03-24T00:19:27.628Z,99.99
2018-03-24T00:20:27.879Z,99.99
2018-03-24T00:21:27.958Z,99.99
2018-03-24T00:22:27.943Z,99.99
2018-03-24T00:23:28.031Z,99.99
2018-03-24T00:24:27.955Z,99.99
2018-03-24T00:25:27.926Z,99.99
2018-03-24T00:26:27.740Z,99.99
2018-03-24T00:27:27.900Z,99.99
2018-03-24T00:28:27.893Z,99.99
2018-03-24T00:29:27.879Z,99.99
2018-03-24T00:30:28.080Z,99.99
2018-03-24T00:31:27.881Z,99.99
2018-03-24T00:32:27.784Z,99.99
2018-03-24T00:33:27.862Z,99.99
2018-03-24T00:34:27.557Z,99.99
2018-03-24T00:35:28.211Z,99.99
2018-03-24T00:36:27.883Z,99.99
2018-03-24T00:37:27.481Z,99.99
2018-03-24T00:38:27.935Z,99.99
2018-03-24T00:39:27.651Z,99.99
2018-03-24T00:40:27.871Z,99.99
2018-03-24T00:41:27.849Z,99.99
2018-03-24T00:42:27.846Z,99.99
2018-03-24T00:43:27.866Z,99.99
2018-03-24T00:44:27.814Z,99.99
2018-03-24T00:45:27.510Z,99.99
2018-03-24T00:46:27.473Z,99.99
2018-03-24T00:47:27.422Z,99.99
2018-03-24T00:48:27.879Z,99.99
2018-03-24T00:49:27.800Z,99.99
2018-03-24T00:50:27.785Z,99.99
2018-03-24T00:51:27.733Z,99.99
2018-03-24T00:52:27.679Z,99.99
2018-03-24T00:53:27.766Z,99.99
2018-03-24T00:54:27.415Z,99.99
2018-03-24T00:55:27.866Z,99.99
2018-03-24T00:56:27.635Z,99.99
2018-03-24T00:57:27.422Z,99.99
2018-03-24T00:58:27.350Z,99.99
2018-03-24T00:59:27.442Z,99.99
2018-03-24T01:00:27.702Z,99.99
2018-03-24T01:01:27.796Z,99.99
2018-03-24T01:02:27.699Z,99.99
2018-03-24T01:03:27.593Z,99.99
2018-03-24T01:04:27.678Z,99.99
2018-03-24T01:05:27.496Z,99.99
2018-03-24T01:06:28.615Z,99.99
2018-03-24T01:07:27.560Z,99.99
2018-03-24T01:08:27.326Z,99.99
2018-03-24T01:09:27.312Z,99.99
2018-03-24T01:10:27.568Z,99.99
2018-03-24T01:11:27.652Z,99.99
2018-03-24T01:12:27.243Z,99.99
2018-03-24T01:13:27.419Z,99.99
2018-03-24T01:14:27.517Z,99.99
2018-03-24T01:15:27.562Z,99.99
2018-03-24T01:16:27.318Z,99.99
2018-03-24T01:17:27.507Z,99.99
2018-03-24T01:18:27.532Z,99.99
2018-03-24T01:19:27.218Z,99.99
2018-03-24T01:20:27.492Z,99.99
2018-03-24T01:21:27.568Z,99.99
2018-03-24T01:22:27.561Z,99.99
2018-03-24T01:23:27.501Z,99.99
2018-03-24T01:24:27.220Z,99.99
2018-03-24T01:25:27.062Z,99.99
2018-03-24T01:26:27.127Z,99.99
2018-03-24T01:27:27.215Z,99.99
2018-03-24T01:28:27.038Z,99.99
2018-03-24T01:29:27.103Z,99.99
2018-03-24T01:30:27.355Z,99.99
2018-03-24T01:31:27.253Z,99.99
2018-03-24T01:32:27.038Z,99.99
2018-03-24T01:33:26.985Z,99.99
2018-03-24T01:34:27.222Z,99.99
2018-03-24T01:35:26.988Z,99.99
2018-03-24T01:36:27.207Z,99.99
2018-03-24T01:37:27.198Z,99.99
2018-03-24T01:38:27.195Z,99.99
2018-03-24T01:39:26.920Z,99.99
2018-03-24T01:40:27.181Z,99.99
2018-03-24T01:41:27.163Z,99.99
2018-03-24T01:42:27.150Z,99.99
2018-03-24T01:43:26.897Z,99.99
2018-03-24T01:44:27.144Z,99.99
2018-03-24T01:45:27.124Z,99.99
2018-03-24T01:46:27.123Z,99.99
2018-03-24T01:47:27.127Z,99.99
2018-03-24T01:48:27.091Z,99.99
2018-03-24T01:49:27.095Z,99.99
2018-03-24T01:50:27.069Z,99.99
2018-03-24T01:51:26.808Z,99.99
2018-03-24T01:52:27.066Z,99.99
2018-03-24T01:53:27.040Z,99.99
2018-03-24T01:54:26.825Z,99.99
2018-03-24T01:55:27.027Z,99.99
2018-03-24T01:56:27.010Z,99.99
2018-03-24T01:57:27.059Z,99.99
2018-03-24T01:58:27.103Z,99.99
2018-03-24T01:59:26.728Z,99.99
2018-03-24T02:00:26.992Z,99.99
2018-03-24T02:01:26.981Z,99.99
2018-03-24T02:02:26.958Z,99.99
2018-03-24T02:03:26.955Z,99.99
2018-03-24T02:04:26.933Z,99.99
2018-03-24T02:05:26.927Z,99.99
2018-03-24T02:06:26.923Z,99.99
2018-03-24T02:07:26.649Z,99.99
2018-03-24T02:08:26.918Z,99.99
2018-03-24T02:09:26.890Z,99.99
2018-03-24T02:10:26.622Z,99.99
2018-03-24T02:11:26.870Z,99.99
2018-03-24T02:12:26.870Z,99.99
2018-03-24T02:13:26.933Z,99.99
2018-03-24T02:14:26.837Z,99.99
2018-03-24T02:15:26.579Z,99.99
2018-03-24T02:16:26.825Z,99.99
2018-03-24T02:17:26.817Z,99.99
2018-03-24T02:18:26.798Z,99.99
2018-03-24T02:19:26.533Z,99.99
2018-03-24T02:20:26.782Z,99.99
2018-03-24T02:21:26.512Z,99.99
2018-03-24T02:22:26.756Z,99.99
2018-03-24T02:23:26.491Z,99.99
2018-03-24T02:24:26.739Z,99.99
2018-03-24T02:25:26.476Z,99.99
2018-03-24T02:26:26.463Z,99.99
2018-03-24T02:27:26.452Z,99.99
2018-03-24T02:28:26.696Z,99.99
2018-03-24T02:29:26.722Z,99.99
2018-03-24T02:30:26.686Z,99.99
2018-03-24T02:31:26.668Z,99.99
2018-03-24T02:32:26.723Z,99.99
2018-03-24T02:33:26.397Z,99.99
2018-03-24T02:34:26.383Z,99.99
2018-03-24T02:35:26.381Z,99.99
2018-03-24T02:36:26.615Z,99.99
2018-03-24T02:37:26.613Z,99.99
2018-03-24T02:38:26.612Z,99.99
2018-03-24T02:39:26.365Z,99.99
2018-03-24T02:40:26.601Z,99.99
2018-03-24T02:41:26.585Z,99.99
2018-03-24T02:42:26.567Z,99.99
2018-03-24T02:43:26.565Z,99.99
2018-03-24T02:44:26.543Z,99.99
2018-03-24T02:45:26.529Z,99.99
2018-03-24T02:46:26.526Z,99.99
2018-03-24T02:47:26.506Z,99.99
2018-03-24T02:48:26.507Z,99.99
2018-03-24T02:49:26.507Z,99.99
2018-03-24T02:50:26.487Z,99.99
2018-03-24T02:51:26.488Z,99.99
2018-03-24T02:52:26.465Z,99.99
2018-03-24T02:53:26.456Z,99.99
2018-03-24T02:54:26.436Z,99.99
2018-03-24T02:55:26.435Z,99.99
2018-03-24T02:56:26.433Z,99.99
2018-03-24T02:57:26.418Z,99.99
2018-03-24T02:58:26.139Z,99.99
2018-03-24T02:59:26.413Z,99.99
2018-03-24T03:00:26.405Z,99.99
2018-03-24T03:01:26.374Z,99.99
2018-03-24T03:02:26.365Z,99.99
2018-03-24T03:03:26.342Z,99.99
2018-03-24T03:04:26.379Z,99.99
2018-03-24T03:05:26.337Z,99.99
2018-03-24T03:06:26.318Z,99.99
2018-03-24T03:07:26.303Z,99.99
2018-03-24T03:08:26.041Z,99.99
2018-03-24T03:09:26.040Z,99.99
2018-03-24T03:10:26.276Z,99.99
2018-03-24T03:11:26.020Z,99.99
2018-03-24T03:12:26.255Z,99.99
2018-03-24T03:13:25.982Z,99.99
2018-03-24T03:14:25.984Z,99.99
2018-03-24T03:15:26.223Z,99.99
2018-03-24T03:16:26.207Z,99.99
2018-03-24T03:17:26.197Z,99.99
2018-03-24T03:18:26.186Z,99.99
2018-03-24T03:19:25.921Z,99.99
2018-03-24T03:20:26.172Z,99.99
2018-03-24T03:21:26.155Z,99.99
2018-03-24T03:22:26.214Z,99.99
2018-03-24T03:23:25.883Z,99.99
2018-03-24T03:24:25.882Z,99.99
2018-03-24T03:25:26.229Z,99.99
2018-03-24T03:26:26.105Z,99.99
2018-03-24T03:27:26.096Z,99.99
2018-03-24T03:28:26.097Z,99.99
2018-03-24T03:29:26.079Z,99.99
2018-03-24T03:30:26.067Z,99.99
2018-03-24T03:31:26.071Z,99.99
2018-03-24T03:32:25.785Z,99.99
2018-03-24T03:33:26.037Z,99.99
2018-03-24T03:34:26.984Z,99.99
2018-03-24T03:35:26.045Z,99.99
2018-03-24T03:36:25.997Z,99.99
2018-03-24T03:37:25.993Z,99.99
2018-03-24T03:38:25.728Z,99.99
2018-03-24T03:39:25.723Z,99.99
2018-03-24T03:40:25.962Z,99.99
2018-03-24T03:41:25.948Z,99.99
2018-03-24T03:42:26.053Z,99.99
2018-03-24T03:43:26.074Z,99.99
2018-03-24T03:44:26.048Z,99.99
2018-03-24T03:45:25.991Z,99.99
2018-03-24T03:46:25.727Z,99.99
2018-03-24T03:47:26.054Z,99.99
2018-03-24T03:48:25.972Z,99.99
2018-03-24T03:49:26.009Z,99.99
2018-03-24T03:50:25.995Z,99.99
2018-03-24T03:51:25.686Z,99.99
2018-03-24T03:52:26.060Z,99.99
2018-03-24T03:53:25.925Z,99.99
2018-03-24T03:54:25.880Z,99.99
2018-03-24T03:55:25.796Z,99.99
2018-03-24T03:56:25.907Z,99.99
2018-03-24T03:57:25.657Z,99.99
2018-03-24T03:58:25.893Z,99.99
2018-03-24T03:59:25.878Z,99.99
2018-03-24T04:00:25.864Z,99.99
2018-03-24T04:01:25.557Z,99.99
2018-03-24T04:02:25.847Z,99.99
2018-03-24T04:03:25.571Z,99.99
2018-03-24T04:04:25.800Z,99.99
2018-03-24T04:05:26.898Z,99.99
2018-03-24T04:06:25.689Z,99.99
2018-03-24T04:07:26.010Z,99.99
2018-03-24T04:08:25.841Z,99.99
2018-03-24T04:09:25.728Z,99.99
2018-03-24T04:10:26.041Z,99.99
2018-03-24T04:11:25.761Z,99.99
2018-03-24T04:12:25.430Z,99.99
2018-03-24T04:13:25.767Z,99.99
2018-03-24T04:14:25.485Z,99.99
2018-03-24T04:15:26.345Z,99.99
2018-03-24T04:16:25.681Z,99.99
2018-03-24T04:17:25.727Z,99.99
2018-03-24T04:18:25.739Z,99.99
2018-03-24T04:19:25.447Z,99.99
2018-03-24T04:20:25.616Z,99.99
2018-03-24T04:21:25.724Z,99.99
2018-03-24T04:22:25.763Z,99.99
2018-03-24T04:23:25.305Z,99.99
2018-03-24T04:24:25.601Z,99.99
2018-03-24T04:25:25.581Z,99.99
2018-03-24T04:26:25.554Z,99.99
2018-03-24T04:27:25.356Z,99.99
2018-03-24T04:28:25.525Z,99.99
2018-03-24T04:29:25.550Z,99.99
2018-03-24T04:30:25.583Z,99.99
2018-03-24T04:31:25.427Z,99.99
2018-03-24T04:32:25.501Z,99.99
2018-03-24T04:33:25.517Z,99.99
2018-03-24T04:34:25.400Z,99.99
2018-03-24T04:35:25.170Z,99.99
2018-03-24T04:36:25.415Z,99.99
2018-03-24T04:37:25.377Z,99.99
2018-03-24T04:38:25.084Z,99.99
2018-03-24T04:39:25.338Z,99.99
2018-03-24T04:40:25.074Z,99.99
2018-03-24T04:41:25.052Z,99.99
2018-03-24T04:42:25.297Z,99.99
2018-03-24T04:43:25.296Z,99.99
2018-03-24T04:44:25.310Z,99.99
2018-03-24T04:45:25.271Z,99.99
2018-03-24T04:46:25.007Z,99.99
2018-03-24T04:47:24.984Z,99.99
2018-03-24T04:48:25.238Z,99.99
2018-03-24T04:49:24.977Z,99.99
2018-03-24T04:50:25.208Z,99.99
2018-03-24T04:51:24.942Z,99.99
2018-03-24T04:52:25.200Z,99.99
2018-03-24T04:53:25.177Z,99.99
2018-03-24T04:54:25.165Z,99.99
2018-03-24T04:55:25.159Z,99.99
2018-03-24T04:56:25.155Z,99.99
2018-03-24T04:57:25.134Z,99.99
2018-03-24T04:58:25.125Z,99.99
2018-03-24T04:59:25.119Z,99.99
2018-03-24T05:00:25.102Z,99.99
2018-03-24T05:01:25.095Z,99.99
2018-03-24T05:02:25.077Z,99.99
2018-03-24T05:03:25.065Z,99.99
2018-03-24T05:04:25.060Z,99.99
2018-03-24T05:05:25.082Z,99.99
2018-03-24T05:06:25.034Z,99.99
2018-03-24T05:07:25.024Z,99.99
2018-03-24T05:08:25.019Z,99.99
2018-03-24T05:09:25.003Z,99.99
2018-03-24T05:10:24.989Z,99.99
2018-03-24T05:11:24.731Z,99.99
2018-03-24T05:12:24.974Z,99.99
2018-03-24T05:13:24.954Z,99.99
2018-03-24T05:14:24.954Z,99.99
2018-03-24T05:15:24.934Z,99.99
2018-03-24T05:16:24.926Z,99.99
2018-03-24T05:17:24.674Z,99.99
2018-03-24T05:18:24.906Z,99.99
2018-03-24T05:19:24.890Z,99.99
2018-03-24T05:20:24.877Z,99.99
2018-03-24T05:21:24.866Z,99.99
2018-03-24T05:22:24.867Z,99.99
2018-03-24T05:23:24.851Z,99.99
2018-03-24T05:24:24.841Z,99.99
2018-03-24T05:25:24.827Z,99.99
2018-03-24T05:26:24.821Z,99.99
2018-03-24T05:27:24.803Z,99.99
2018-03-24T05:28:24.801Z,99.99
2018-03-24T05:29:24.782Z,99.99
2018-03-24T05:30:24.781Z,99.99
2018-03-24T05:31:24.757Z,99.99
2018-03-24T05:32:24.746Z,99.99
2018-03-24T05:33:24.746Z,99.99
2018-03-24T05:34:24.732Z,99.99
2018-03-24T05:35:24.460Z,99.99
2018-03-24T05:36:24.447Z,99.99
2018-03-24T05:37:24.692Z,99.99
2018-03-24T05:38:24.437Z,99.99
2018-03-24T05:39:24.670Z,99.99
2018-03-24T05:40:24.673Z,99.99
2018-03-24T05:41:24.650Z,99.99
2018-03-24T05:42:24.687Z,99.99
2018-03-24T05:43:24.374Z,99.99
2018-03-24T05:44:24.642Z,99.99
2018-03-24T05:45:24.618Z,99.99
2018-03-24T05:46:24.602Z,99.99
2018-03-24T05:47:24.582Z,99.99
2018-03-24T05:48:24.585Z,99.99
2018-03-24T05:49:24.567Z,99.99
2018-03-24T05:50:24.299Z,99.99
2018-03-24T05:51:24.545Z,99.99
2018-03-24T05:52:24.537Z,99.99
2018-03-24T05:53:24.534Z,99.99
2018-03-24T05:54:24.265Z,99.99
2018-03-24T05:55:24.246Z,99.99
2018-03-24T05:56:24.495Z,99.99
2018-03-24T05:57:24.476Z,99.99
2018-03-24T05:58:24.467Z,99.99
2018-03-24T05:59:24.459Z,99.99
2018-03-24T06:00:24.447Z,99.99
2018-03-24T06:01:24.436Z,99.99
2018-03-24T06:02:24.427Z,99.99
2018-03-24T06:03:24.423Z,99.99
2018-03-24T06:04:24.408Z,99.99
2018-03-24T06:05:24.398Z,99.99
2018-03-24T06:06:24.392Z,99.99
2018-03-24T06:07:24.389Z,99.99
2018-03-24T06:08:24.370Z,99.99
2018-03-24T06:09:24.369Z,99.99
2018-03-24T06:10:24.374Z,99.99
2018-03-24T06:11:24.345Z,99.99
2018-03-24T06:12:24.117Z,99.99
2018-03-24T06:13:24.326Z,99.99
2018-03-24T06:14:24.316Z,99.99
2018-03-24T06:15:24.306Z,99.99
2018-03-24T06:16:24.294Z,99.99
2018-03-24T06:17:24.272Z,99.99
2018-03-24T06:26:37.985Z,99.99
2018-03-24T06:27:37.662Z,99.99
2018-03-24T06:28:37.649Z,99.99
2018-03-24T06:29:37.893Z,99.99
2018-03-24T06:30:37.623Z,99.99
2018-03-24T06:31:37.876Z,99.99
2018-03-24T06:32:37.598Z,99.99
2018-03-24T06:33:37.854Z,99.99
2018-03-24T06:34:37.845Z,99.99
2018-03-24T06:35:37.831Z,99.99
2018-03-24T06:36:37.821Z,99.99
2018-03-24T06:37:37.802Z,99.99
2018-03-24T06:38:37.793Z,99.99
2018-03-24T06:39:37.520Z,99.99
2018-03-24T06:40:37.788Z,99.99
2018-03-24T06:41:38.058Z,99.99
2018-03-24T06:42:37.796Z,99.99
2018-03-24T06:43:37.744Z,99.99
2018-03-24T06:44:37.470Z,99.99
2018-03-24T06:45:37.469Z,99.99
2018-03-24T06:46:37.450Z,99.99
2018-03-24T06:47:37.711Z,99.99
2018-03-24T06:48:37.434Z,99.99
2018-03-24T06:49:37.680Z,99.99
2018-03-24T06:50:37.665Z,99.99
2018-03-24T06:51:37.664Z,99.99
2018-03-24T06:52:37.656Z,99.99
2018-03-24T06:53:37.389Z,99.99
2018-03-24T06:54:37.645Z,99.99
2018-03-24T06:55:37.620Z,99.99
2018-03-24T06:56:37.670Z,99.99
2018-03-24T06:57:37.370Z,99.99
2018-03-24T06:58:37.618Z,99.99
2018-03-24T06:59:37.596Z,99.99
2018-03-24T07:00:37.667Z,99.99
2018-03-24T07:01:37.584Z,99.99
2018-03-24T07:02:37.567Z,99.99
2018-03-24T07:03:37.560Z,99.99
2018-03-24T07:04:37.558Z,99.99
2018-03-24T07:05:37.295Z,99.4
2018-03-24T07:06:37.541Z,96.93
2018-03-24T07:07:37.285Z,96.36
2018-03-24T07:08:37.533Z,96.26
2018-03-24T07:09:37.521Z,96.55
2018-03-24T07:10:37.263Z,95.27
2018-03-24T07:11:37.254Z,91.85
2018-03-24T07:12:37.506Z,89.86
2018-03-24T07:13:37.503Z,90.19
2018-03-24T07:14:37.495Z,88.67
2018-03-24T07:15:37.488Z,86.61
2018-03-24T07:16:37.234Z,83.33
2018-03-24T07:17:37.481Z,81.09
2018-03-24T07:18:37.479Z,78.75
2018-03-24T07:19:37.473Z,74.46
2018-03-24T07:20:37.472Z,71.73
2018-03-24T07:21:37.219Z,70.78
2018-03-24T07:22:37.215Z,70.92
2018-03-24T07:23:37.470Z,69.87
2018-03-24T07:24:37.472Z,66.56
2018-03-24T07:25:37.470Z,64.88
2018-03-24T07:26:37.468Z,62.62
2018-03-24T07:27:37.468Z,61.13
2018-03-24T07:28:37.207Z,59.88
2018-03-24T07:29:37.211Z,59.5
2018-03-24T07:30:37.465Z,60.07
2018-03-24T07:31:37.209Z,61.38
2018-03-24T07:32:37.506Z,61.47
2018-03-24T07:33:37.472Z,60.24
2018-03-24T07:34:37.206Z,59.31
2018-03-24T07:35:37.481Z,59.98
2018-03-24T07:36:37.463Z,61.19
2018-03-24T07:37:37.471Z,61.19
2018-03-24T07:38:37.481Z,60.14
2018-03-24T07:39:37.216Z,59.85
2018-03-24T07:40:37.482Z,60.17
2018-03-24T07:41:37.477Z,59.56
2018-03-24T07:42:37.227Z,60.52
2018-03-24T07:43:37.486Z,61
2018-03-24T07:44:37.228Z,60.42
2018-03-24T07:45:37.223Z,60.52
2018-03-24T07:46:37.480Z,60.61
2018-03-24T07:47:37.573Z,60.61
2018-03-24T07:48:37.482Z,62.02
2018-03-24T07:49:37.228Z,62.78
2018-03-24T07:50:37.484Z,63.8
2018-03-24T07:51:37.494Z,63.89
2018-03-24T07:52:37.488Z,64.37
2018-03-24T07:53:37.492Z,63.89
2018-03-24T07:54:37.237Z,64.28
2018-03-24T07:55:37.493Z,63.04
2018-03-24T07:56:37.498Z,63.6
2018-03-24T07:57:37.496Z,62.88
2018-03-24T07:58:37.496Z,61.76
2018-03-24T07:59:37.239Z,58.64
2018-03-24T08:00:37.499Z,56.76
2018-03-24T08:01:37.499Z,54.39
2018-03-24T08:02:37.245Z,52.8
2018-03-24T08:04:37.514Z,52.89
2018-03-24T08:05:37.516Z,52.51
2018-03-24T08:06:37.254Z,51.68
2018-03-24T08:07:37.518Z,51.77
2018-03-24T08:08:37.531Z,51.1
2018-03-24T08:09:37.583Z,50.24
2018-03-24T08:10:37.265Z,50.46
2018-03-24T08:11:37.529Z,48.83
2018-03-24T08:12:37.529Z,47.22
2018-03-24T08:13:37.533Z,46.94
2018-03-24T08:14:37.531Z,44.93
2018-03-24T08:15:37.531Z,45.31
2018-03-24T08:16:37.535Z,46.55
2018-03-24T08:17:37.317Z,46.65
2018-03-24T08:18:37.292Z,47.03
2018-03-24T08:19:37.293Z,46.26
2018-03-24T08:20:37.566Z,45.81
2018-03-24T08:21:37.574Z,44.95
2018-03-24T08:22:37.554Z,44.45
2018-03-24T08:23:37.563Z,45.02
2018-03-24T08:24:37.308Z,45.5
2018-03-24T08:25:37.571Z,45.4
2018-03-24T08:26:37.570Z,43.77
2018-03-24T08:27:37.569Z,45.38
2018-03-24T08:28:37.577Z,46.7
2018-03-24T08:29:37.581Z,48.66
2018-03-24T08:30:37.583Z,50.07
2018-03-24T08:31:37.584Z,52.5
2018-03-24T08:32:37.589Z,55.91
2018-03-24T08:33:37.588Z,58.65
2018-03-24T08:34:37.592Z,60.43
2018-03-24T08:35:37.596Z,60.81
2018-03-24T08:36:37.600Z,60.02
2018-03-24T08:37:37.601Z,60.18
2018-03-24T08:38:37.598Z,60.66
2018-03-24T08:39:37.601Z,62.18
2018-03-24T08:40:37.602Z,64.05
2018-03-24T08:41:37.604Z,63.96
2018-03-24T08:42:37.604Z,64.53
2018-03-24T08:43:37.602Z,65.48
2018-03-24T08:44:37.360Z,64.9
2018-03-24T08:45:37.604Z,63.67
2018-03-24T08:46:37.602Z,62.81
2018-03-24T08:47:37.599Z,63.67
2018-03-24T08:48:37.597Z,65
2018-03-24T08:49:37.600Z,65.19
2018-03-24T08:50:37.593Z,63.96
2018-03-24T08:51:37.342Z,65
2018-03-24T08:52:37.342Z,64.9
2018-03-24T08:53:37.592Z,64.34
2018-03-24T08:54:37.584Z,64.34
2018-03-24T08:55:37.589Z,65.19
2018-03-24T08:56:37.581Z,66.05
2018-03-24T08:57:37.580Z,65.48
2018-03-24T08:58:37.322Z,65.38
2018-03-24T08:59:38.567Z,66.14
2018-03-24T09:00:37.680Z,64.9
2018-03-24T09:01:37.581Z,64.9
2018-03-24T09:02:37.566Z,65.29
2018-03-24T09:03:37.562Z,65.58
2018-03-24T09:04:37.568Z,62.72
2018-03-24T09:05:37.580Z,62.72
2018-03-24T09:06:37.593Z,63.96
2018-03-24T09:07:37.562Z,64.24
2018-03-24T09:08:37.548Z,63.76
2018-03-24T09:09:37.551Z,64.62
2018-03-24T09:10:37.341Z,64.72
2018-03-24T09:11:37.536Z,63.67
2018-03-24T09:12:37.284Z,62.72
2018-03-24T09:13:37.536Z,62.53
2018-03-24T09:14:37.541Z,62.53
2018-03-24T09:15:37.526Z,62.62
2018-03-24T09:16:37.520Z,61.58
2018-03-24T09:17:37.271Z,61.86
2018-03-24T09:18:37.283Z,62.24
2018-03-24T09:19:37.510Z,63.1
2018-03-24T09:20:37.509Z,61.77
2018-03-24T09:21:37.505Z,60.72
2018-03-24T09:22:37.423Z,61.19
2018-03-24T09:23:37.738Z,60.53
2018-03-24T09:24:37.662Z,59.48
2018-03-24T09:25:37.267Z,58.65
2018-03-24T09:26:37.233Z,59.23
2018-03-24T09:27:37.237Z,58.81
2018-03-24T09:28:37.481Z,58.91
2018-03-24T09:29:37.470Z,58.37
2018-03-24T09:30:37.492Z,57.51
2018-03-24T09:31:37.566Z,56.94
2018-03-24T09:32:37.470Z,56.37
2018-03-24T09:33:37.465Z,55.7
2018-03-24T09:34:37.461Z,55.61
2018-03-24T09:35:37.201Z,55.04
2018-03-24T09:36:37.466Z,55.61
2018-03-24T09:37:37.445Z,56.09
2018-03-24T09:38:37.481Z,55.32
2018-03-24T09:39:37.439Z,55.32
2018-03-24T09:40:37.435Z,55.9
2018-03-24T09:41:37.505Z,56.46
2018-03-24T09:42:37.441Z,56.27
2018-03-24T09:43:37.433Z,55.8
2018-03-24T09:44:37.427Z,55.04
2018-03-24T09:45:37.429Z,54.37
2018-03-24T09:46:38.615Z,54.08
2018-03-24T09:47:37.168Z,54.94
2018-03-24T09:48:37.414Z,55.51
2018-03-24T09:49:37.414Z,55.13
2018-03-24T09:50:37.414Z,54.27
2018-03-24T09:51:37.188Z,54.08
2018-03-24T09:52:38.740Z,53.99
2018-03-24T09:53:37.605Z,54.94
2018-03-24T09:54:37.156Z,54.94
2018-03-24T09:55:37.345Z,53.99
2018-03-24T09:56:37.574Z,52.94
2018-03-24T09:57:37.601Z,52.66
2018-03-24T09:58:37.564Z,52.56
2018-03-24T09:59:37.177Z,52.75
2018-03-24T10:00:37.420Z,52.28
2018-03-24T10:01:37.404Z,51.51
2018-03-24T10:02:37.671Z,51.8
2018-03-24T10:03:37.491Z,52.56
2018-03-24T10:04:37.789Z,51.51
2018-03-24T10:05:37.214Z,52.37
2018-03-24T10:06:37.583Z,51.7
2018-03-24T10:07:37.558Z,51.51
2018-03-24T10:08:37.236Z,51.42
2018-03-24T10:09:37.554Z,51.14
2018-03-24T10:10:37.448Z,49.8
2018-03-24T10:11:37.497Z,49.71
2018-03-24T10:12:37.504Z,50.09
2018-03-24T10:13:37.504Z,50.46
2018-03-24T10:14:37.185Z,50.37
2018-03-24T10:15:37.186Z,49.9
2018-03-24T10:16:37.262Z,50.85
2018-03-24T10:17:37.484Z,50.46
2018-03-24T10:18:37.487Z,50.18
2018-03-24T10:19:37.432Z,49.61
2018-03-24T10:20:37.347Z,49.04
2018-03-24T10:21:37.389Z,48.94
2018-03-24T10:22:37.229Z,49.61
2018-03-24T10:23:37.143Z,50.09
2018-03-24T10:24:37.499Z,49.99
2018-03-24T10:25:37.400Z,50.21
2018-03-24T10:26:37.703Z,49.8
2018-03-24T10:27:37.701Z,50.21
2018-03-24T10:57:43.436Z,50.68
2018-03-24T10:58:43.425Z,49.54
2018-03-24T10:59:43.415Z,49.06
2018-03-24T11:00:43.404Z,49.16
2018-03-24T11:01:43.396Z,49.06
2018-03-24T11:02:43.389Z,48.02
2018-03-24T11:03:43.381Z,48.97
2018-03-24T11:04:43.120Z,48.02
2018-03-24T11:05:43.365Z,47.25
2018-03-24T11:06:43.109Z,47.34
2018-03-24T11:07:43.174Z,46.39
2018-03-24T11:08:43.351Z,46.97
2018-03-24T11:09:43.111Z,47.92
2018-03-24T11:10:43.342Z,47.73
2018-03-24T11:11:43.334Z,46.78
2018-03-24T11:12:43.332Z,49.16
2018-03-24T11:13:43.324Z,48.02
2018-03-24T11:14:43.337Z,46.58
2018-03-24T11:15:43.320Z,48.58
2018-03-24T11:16:43.339Z,47.16
2018-03-24T11:17:43.371Z,45.73
2018-03-24T11:18:43.063Z,46.23
2018-03-24T11:19:43.308Z,45.84
2018-03-24T11:20:43.301Z,47.08
2018-03-24T11:21:43.055Z,47.44
2018-03-24T11:22:43.077Z,46.61
2018-03-24T11:23:43.294Z,47.28
2018-03-24T11:24:43.302Z,47.37
2018-03-24T11:25:43.037Z,46.8
2018-03-24T11:26:43.043Z,46.42
2018-03-24T11:27:43.285Z,46.42
2018-03-24T11:28:43.278Z,46.32
2018-03-24T11:29:43.291Z,46.42
2018-03-24T11:30:43.271Z,46.61
2018-03-24T11:31:43.276Z,46.13
2018-03-24T11:32:43.270Z,46.13
2018-03-24T11:33:43.033Z,45.18
2018-03-24T11:34:43.264Z,46.32
2018-03-24T11:35:43.281Z,45.37
2018-03-24T11:36:43.332Z,48.99
2018-03-24T11:37:43.037Z,47.94
2018-03-24T11:38:43.128Z,45.84
2018-03-24T11:39:43.251Z,44.89
2018-03-24T11:40:43.590Z,44.89
2018-03-24T11:41:43.249Z,44.04
2018-03-24T11:42:43.149Z,43.46
2018-03-24T11:43:42.996Z,44.8
2018-03-24T11:44:43.248Z,45.65
2018-03-24T11:45:43.258Z,45.28
2018-03-24T11:46:42.983Z,44.8
2018-03-24T11:47:43.241Z,45.56
2018-03-24T11:48:43.231Z,47.08
2018-03-24T11:49:43.233Z,45.18
2018-03-24T11:50:43.235Z,45.18
2018-03-24T11:51:43.339Z,45.56
2018-03-24T11:52:43.225Z,47.08
2018-03-24T11:53:43.222Z,45.75
2018-03-24T11:54:43.216Z,44.82
2018-03-24T11:55:43.225Z,44.34
2018-03-24T11:56:43.218Z,44.92
2018-03-24T11:57:43.265Z,45.49
2018-03-24T11:58:42.987Z,45.58
2018-03-24T11:59:43.238Z,46.63
2018-03-24T12:00:43.225Z,44.63
2018-03-24T12:01:43.188Z,44.92
2018-03-24T12:02:43.196Z,44.63
2018-03-24T12:03:43.206Z,45.29
2018-03-24T12:04:43.192Z,44.6
2018-03-24T12:05:42.973Z,44.53
2018-03-24T12:06:43.270Z,44.6
2018-03-24T12:07:42.946Z,43.94
2018-03-24T12:08:43.173Z,45.28
2018-03-24T12:09:42.953Z,47.75
2018-03-24T12:10:43.231Z,48.07
2018-03-24T12:11:43.187Z,46.42
2018-03-24T12:12:42.922Z,46.04
2018-03-24T12:13:43.171Z,44.04
2018-03-24T12:14:42.921Z,43.84
2018-03-24T12:15:43.157Z,43.96
2018-03-24T12:16:43.151Z,44.25
2018-03-24T12:17:43.185Z,43.84
2018-03-24T12:18:42.900Z,44.6
2018-03-24T12:19:42.894Z,44.34
2018-03-24T12:20:42.884Z,44.15
2018-03-24T12:21:42.888Z,43.49
2018-03-24T12:22:43.158Z,44.82
2018-03-24T12:23:43.138Z,46.04
2018-03-24T12:24:43.140Z,44.92
2018-03-24T12:25:43.131Z,44.04
2018-03-24T12:26:42.885Z,44.34
2018-03-24T12:27:43.184Z,45.01
2018-03-24T12:28:43.137Z,44.44
2018-03-24T12:29:42.862Z,43.2
2018-03-24T12:30:43.109Z,43.29
2018-03-24T12:31:43.121Z,45.01
2018-03-24T12:32:42.864Z,44.15
2018-03-24T12:33:42.868Z,43.58
2018-03-24T12:34:42.892Z,43.39
2018-03-24T12:35:43.128Z,43.29
2018-03-24T12:36:43.122Z,43.2
2018-03-24T12:37:42.872Z,43.87
2018-03-24T12:38:42.852Z,43.87
2018-03-24T12:39:43.147Z,44.63
2018-03-24T12:40:43.105Z,44.82
2018-03-24T12:41:43.183Z,45.01
2018-03-24T12:42:43.115Z,43.87
2018-03-24T12:43:42.843Z,43.87
2018-03-24T12:44:43.134Z,43.1
2018-03-24T12:45:42.874Z,43.39
2018-03-24T12:46:43.111Z,46.15
2018-03-24T12:47:43.092Z,45.01
2018-03-24T12:48:43.109Z,44.73
2018-03-24T12:49:43.214Z,44.15
2018-03-24T12:50:43.088Z,43.39
2018-03-24T12:51:42.822Z,43.49
2018-03-24T12:52:43.213Z,44.15
2018-03-24T12:53:43.082Z,44.53
2018-03-24T12:54:43.073Z,44.06
2018-03-24T12:55:43.074Z,43.77
2018-03-24T12:56:43.063Z,43.39
2018-03-24T12:57:43.113Z,43.2
2018-03-24T12:58:43.070Z,43.87
2018-03-24T12:59:43.078Z,44.34
2018-03-24T13:00:43.052Z,44.25
2018-03-24T13:01:43.196Z,43.68
2018-03-24T13:02:42.787Z,43.68
2018-03-24T13:03:43.039Z,44.15
2018-03-24T13:04:42.773Z,44.15
2018-03-24T13:05:43.032Z,44.15
2018-03-24T13:06:42.853Z,43.29
2018-03-24T13:07:43.041Z,43.2
2018-03-24T13:08:43.030Z,43.01
2018-03-24T13:09:42.770Z,42.82
2018-03-24T13:10:43.036Z,42.53
2018-03-24T13:11:43.029Z,42.34
2018-03-24T13:12:42.816Z,42.53
2018-03-24T13:13:43.019Z,44.44
2018-03-24T13:14:43.059Z,44.44
2018-03-24T13:15:42.997Z,44.25
2018-03-24T13:16:42.738Z,44.06
2018-03-24T13:17:42.990Z,44.15
2018-03-24T13:18:42.993Z,43.39
2018-03-24T13:19:42.996Z,42.34
2018-03-24T13:20:43.061Z,43.49
2018-03-24T13:21:42.979Z,43.96
2018-03-24T13:22:43.054Z,44.82
2018-03-24T13:23:42.977Z,44.92
2018-03-24T13:24:42.762Z,44.82
2018-03-24T13:25:42.983Z,44.25
2018-03-24T13:26:42.974Z,42.34
2018-03-24T13:27:42.830Z,43.87
2018-03-24T13:28:42.969Z,44.15
2018-03-24T13:29:42.964Z,43.29
2018-03-24T13:30:42.959Z,45.68
2018-03-24T13:31:42.962Z,44.53
2018-03-24T13:32:42.963Z,44.15